Time;durP1;ratioP1;P1;durP2;ratioP2;P2;SDS_P1;SDS_P2;PMS_P1;PMS_P2;Temp;Humidity;BMP_temperature;BMP_pressure;BME280_temperature;BME280_humidity;BME280_pressure;Samples;Min_cycle;Max_cycle;Signal;HPM_P1;HPM_P2
2023/07/29 05:19:23;;;;;;;;;;;;;;;;;;4991818;28;19965;-38
2023/07/29 05:21:49;;;;;;;;;;;;;;;;;;4991834;28;20335;-38
2023/07/29 05:24:15;;;;;;;;;;;;;;;;;;4992034;28;19910;-38
2023/07/29 05:26:41;;;;;;;;;;;;;;;;;;4992058;28;19910;-38
2023/07/29 05:29:06;;;;;;;;;;;;;;;;;;4992325;28;20020;-38
2023/07/29 05:31:32;;;;;;;;;;;;;;;;;;4991362;28;19929;-38
2023/07/29 05:33:58;;;;;;;;;;;;;;;;;;4992180;28;20013;-38
2023/07/29 05:36:24;;;;;;;;;;;;;;;;;;4991559;28;19921;-38
2023/07/29 05:38:50;;;;;;;;;;;;;;;;;;4991840;28;20379;-37
2023/07/29 05:41:16;;;;;;;;;;;;;;;;;;4991786;28;19909;-38
2023/07/29 05:43:43;;;;;;;;;;;;;;;;;;4992178;28;20001;-38
2023/07/29 05:46:09;;;;;;;;;;;;;;;;;;4990229;28;19913;-37
2023/07/29 05:48:35;;;;;;;;;;;;;;;;;;4980616;28;20463;-38
2023/07/29 05:51:01;;;;;;;;;;;;;;;;;;4972966;28;20005;-38
2023/07/29 05:53:27;;;;;;;;;;;;;;;;;;4992568;28;19932;-38
2023/07/29 05:55:53;;;;;;;;;;;;;;;;;;4992833;28;19977;-37
2023/07/29 05:58:19;;;;;;;;;;;;;;;;;;4973095;28;19936;-37
2023/07/29 06:00:44;;;;;;;;;;;;;;;;;;4974918;28;19937;-37
2023/07/29 06:03:10;;;;;;;;;;;;;;;;;;4972990;28;20017;-38
2023/07/29 06:05:36;;;;;;;;;;;;;;;;;;4989328;28;19914;-38
2023/07/29 06:08:02;;;;;;;;;;;;;;;;;;4991372;28;19910;-38
2023/07/29 06:10:28;;;;;;;;;;;;;;;;;;4992350;28;19917;-38
2023/07/29 06:12:54;;;;;;;;;;;;;;;;;;4992127;28;19988;-38
2023/07/29 06:15:22;;;;;;;;;;;;;;;;;;4992241;28;19914;-38
2023/07/29 06:17:48;;;;;;;;;;;;;;;;;;4991727;28;19914;-38
2023/07/29 06:20:14;;;;;;;;;;;;;;;;;;4991926;28;19963;-38
2023/07/29 06:22:40;;;;;;;;;;;;;;;;;;4992164;28;19910;-38
2023/07/29 06:25:06;;;;;;;;;;;;;;;;;;4977310;28;19914;-38
2023/07/29 06:27:31;;;;;;;;;;;;;;;;;;4972497;28;20353;-38
2023/07/29 06:29:57;;;;;;;;;;;;;;;;;;4972567;28;19910;-38
2023/07/29 06:32:23;;;;;;;;;;;;;;;;;;4972297;28;19910;-38
2023/07/29 06:34:51;;;;;;;;;;;;;;;;;;4979419;28;19973;-38
2023/07/29 06:37:17;;;;;;;;;;;;;;;;;;4991428;28;19996;-38
2023/07/29 06:39:42;;;;;;;;;;;;;;;;;;4986998;28;19914;-38
2023/07/29 06:42:08;;;;;;;;;;;;;;;;;;4991573;28;19989;-40
2023/07/29 06:44:34;;;;;;;;;;;;;;;;;;4991859;28;19992;-40
2023/07/29 06:47:00;;;;;;;;;;;;;;;;;;4991068;28;20270;-40
2023/07/29 06:49:26;;;;;;;;;;;;;;;;;;4991040;28;19922;-40
2023/07/29 06:51:52;;;;;;;;;;;;;;;;;;4991844;28;19961;-40
2023/07/29 06:54:18;;;;;;;;;;;;;;;;;;4991724;28;19910;-40
2023/07/29 06:56:43;;;;;;;;;;;;;;;;;;4986808;28;19910;-40
2023/07/29 06:59:09;;;;;;;;;;;;;;;;;;4980149;28;19921;-40
2023/07/29 07:01:35;;;;;;;;;;;;;;;;;;4987414;28;19945;-40
2023/07/29 07:04:01;;;;;;;;;;;;;;;;;;4989837;28;19921;-40
2023/07/29 07:06:27;;;;;;;;;;;;;;;;;;4990408;28;19914;-40
2023/07/29 07:08:53;;;;;;;;;;;;;;;;;;4988142;28;20337;-40
2023/07/29 07:11:19;;;;;;;;;;;;;;;;;;4991615;28;19964;-40
2023/07/29 07:13:45;;;;;;;;;;;;;;;;;;4993383;28;19925;-40
2023/07/29 07:16:11;;;;;;;;;;;;;;;;;;4972373;28;19910;-40
2023/07/29 07:18:37;;;;;;;;;;;;;;;;;;4982561;28;20165;-40
2023/07/29 07:21:03;;;;;;;;;;;;;;;;;;4981534;28;20301;-40
2023/07/29 07:23:29;;;;;;;;;;;;;;;;;;4994220;28;19914;-40
2023/07/29 07:25:55;;;;;;;;;;;;;;;;;;4991939;28;19921;-40
2023/07/29 07:28:21;;;;;;;;;;;;;;;;;;4991633;28;19909;-40
2023/07/29 07:30:46;;;;;;;;;;;;;;;;;;4983592;28;19945;-40
2023/07/29 07:33:13;;;;;;;;;;;;;;;;;;5006542;28;19920;-40
2023/07/29 07:35:38;;;;;;;;;;;;;;;;;;4992476;28;19910;-40
2023/07/29 07:38:07;;;;;;;;;;;;;;;;;;4989595;28;19913;-40
2023/07/29 07:40:33;;;;;;;;;;;;;;;;;;4989820;28;19916;-40
2023/07/29 07:42:58;;;;;;;;;;;;;;;;;;4989705;28;19929;-40
2023/07/29 07:45:24;;;;;;;;;;;;;;;;;;4989513;28;19910;-40
2023/07/29 07:47:50;;;;;;;;;;;;;;;;;;4988724;28;19910;-40
2023/07/29 07:50:16;;;;;;;;;;;;;;;;;;4989469;28;20045;-40
2023/07/29 07:52:42;;;;;;;;;;;;;;;;;;4971344;28;19937;-40
2023/07/29 07:55:08;;;;;;;;;;;;;;;;;;4970289;28;19966;-40
2023/07/29 07:57:34;;;;;;;;;;;;;;;;;;4986354;28;20359;-40
2023/07/29 08:00:00;;;;;;;;;;;;;;;;;;4984747;28;19989;-40
2023/07/29 08:02:26;;;;;;;;;;;;;;;;;;4988906;28;19940;-40
2023/07/29 08:04:51;;;;;;;;;;;;;;;;;;4990021;28;19968;-40
2023/07/29 08:07:17;;;;;;;;;;;;;;;;;;4991587;28;20272;-40
2023/07/29 08:09:43;;;;;;;;;;;;;;;;;;4990814;28;19956;-40
2023/07/29 08:12:09;;;;;;;;;;;;;;;;;;4989361;28;19972;-40
2023/07/29 08:14:35;;;;;;;;;;;;;;;;;;4989414;28;19917;-40
2023/07/29 08:17:01;;;;;;;;;;;;;;;;;;4988586;28;19928;-40
2023/07/29 08:19:27;;;;;;;;;;;;;;;;;;4989061;28;20388;-40
2023/07/29 08:21:53;;;;;;;;;;;;;;;;;;4990027;28;19916;-40
2023/07/29 08:24:19;;;;;;;;;;;;;;;;;;4988750;28;19932;-40
2023/07/29 08:26:45;;;;;;;;;;;;;;;;;;4968795;28;20358;-40
2023/07/29 08:29:12;;;;;;;;;;;;;;;;;;4968785;28;19956;-40
2023/07/29 08:31:37;;;;;;;;;;;;;;;;;;4971225;28;19911;-40
2023/07/29 08:34:03;;;;;;;;;;;;;;;;;;4972651;28;19917;-40
2023/07/29 08:36:29;;;;;;;;;;;;;;;;;;4972314;28;20373;-40
2023/07/29 08:38:55;;;;;;;;;;;;;;;;;;4972774;28;19923;-40
2023/07/29 08:41:22;;;;;;;;;;;;;;;;;;4972504;28;19910;-40
2023/07/29 08:43:48;;;;;;;;;;;;;;;;;;4972117;28;20403;-40
2023/07/29 08:46:15;;;;;;;;;;;;;;;;;;4972201;28;19911;-40
2023/07/29 08:48:41;;;;;;;;;;;;;;;;;;4972035;28;19917;-40
2023/07/29 08:51:07;;;;;;;;;;;;;;;;;;4983623;28;19910;-40
2023/07/29 08:53:33;;;;;;;;;;;;;;;;;;4991610;28;19916;-40
2023/07/29 08:55:59;;;;;;;;;;;;;;;;;;4991479;28;19964;-40
2023/07/29 08:58:25;;;;;;;;;;;;;;;;;;4991714;28;19914;-40
2023/07/29 09:00:51;;;;;;;;;;;;;;;;;;4991598;28;20530;-40
2023/07/29 09:03:17;;;;;;;;;;;;;;;;;;4991304;28;19925;-40
2023/07/29 09:05:42;;;;;;;;;;;;;;;;;;4991329;28;19905;-40
2023/07/29 09:08:08;;;;;;;;;;;;;;;;;;4990617;28;19913;-40
2023/07/29 09:10:34;;;;;;;;;;;;;;;;;;4989583;28;19917;-40
2023/07/29 09:13:02;;;;;;;;;;;;;;;;;;4991171;28;20435;-40
2023/07/29 09:15:29;;;;;;;;;;;;;;;;;;4990617;28;19910;-40
2023/07/29 09:17:54;;;;;;;;;;;;;;;;;;4989273;28;19918;-40
2023/07/29 09:20:20;;;;;;;;;;;;;;;;;;4990027;28;19925;-40
2023/07/29 09:22:46;;;;;;;;;;;;;;;;;;4989903;28;19910;-40
2023/07/29 09:25:16;;;;;;;;;;;;;;;;;;4987999;28;19914;-40
2023/07/29 09:27:42;;;;;;;;;;;;;;;;;;4989781;28;19917;-40
2023/07/29 09:30:08;;;;;;;;;;;;;;;;;;4989507;28;19910;-42
2023/07/29 09:32:34;;;;;;;;;;;;;;;;;;4989477;28;20451;-42
2023/07/29 09:34:59;;;;;;;;;;;;;;;;;;4989995;28;19914;-42
2023/07/29 09:37:26;;;;;;;;;;;;;;;;;;4989225;28;19922;-41
2023/07/29 09:39:51;;;;;;;;;;;;;;;;;;4989489;28;19916;-42
2023/07/29 09:42:18;;;;;;;;;;;;;;;;;;4989254;28;19910;-42
2023/07/29 09:44:44;;;;;;;;;;;;;;;;;;4988283;28;19914;-44
2023/07/29 09:47:10;;;;;;;;;;;;;;;;;;4988486;28;20269;-42
2023/07/29 09:49:36;;;;;;;;;;;;;;;;;;4989237;28;19957;-41
2023/07/29 09:52:03;;;;;;;;;;;;;;;;;;4988379;28;19926;-41
2023/07/29 09:54:29;;;;;;;;;;;;;;;;;;4989016;28;20308;-42
2023/07/29 09:56:55;;;;;;;;;;;;;;;;;;4987920;28;19914;-42
2023/07/29 09:59:21;;;;;;;;;;;;;;;;;;4988840;28;19910;-42
2023/07/29 10:01:46;;;;;;;;;;;;;;;;;;4987112;28;19918;-41
2023/07/29 10:04:12;;;;;;;;;;;;;;;;;;4988852;28;19909;-41
2023/07/29 10:06:38;;;;;;;;;;;;;;;;;;4988859;28;19909;-41
2023/07/29 10:09:04;;;;;;;;;;;;;;;;;;4989347;28;19914;-42
2023/07/29 10:11:30;;;;;;;;;;;;;;;;;;4987712;28;20259;-41
2023/07/29 10:13:56;;;;;;;;;;;;;;;;;;4987337;28;20829;-42
2023/07/29 10:16:22;;;;;;;;;;;;;;;;;;4987515;28;19916;-42
2023/07/29 10:18:48;;;;;;;;;;;;;;;;;;4988580;28;19925;-41
2023/07/29 10:21:14;;;;;;;;;;;;;;;;;;4986643;28;20288;-41
2023/07/29 10:23:40;;;;;;;;;;;;;;;;;;4987719;28;19910;-41
2023/07/29 10:26:06;;;;;;;;;;;;;;;;;;4979881;28;19922;-42
2023/07/29 10:28:32;;;;;;;;;;;;;;;;;;4968945;28;19914;-41
2023/07/29 10:30:58;;;;;;;;;;;;;;;;;;4969005;28;19910;-41
2023/07/29 10:33:24;;;;;;;;;;;;;;;;;;4969279;28;19918;-41
2023/07/29 10:35:50;;;;;;;;;;;;;;;;;;4968857;28;20301;-41
2023/07/29 10:38:15;;;;;;;;;;;;;;;;;;4977597;28;19922;-41
2023/07/29 10:40:41;;;;;;;;;;;;;;;;;;4987838;28;19917;-41
2023/07/29 10:43:09;;;;;;;;;;;;;;;;;;4987714;28;21381;-41
2023/07/29 10:45:35;;;;;;;;;;;;;;;;;;4988889;28;19957;-42
2023/07/29 10:48:01;;;;;;;;;;;;;;;;;;4988030;28;20028;-42
2023/07/29 10:50:27;;;;;;;;;;;;;;;;;;4987316;28;19920;-43
2023/07/29 10:52:54;;;;;;;;;;;;;;;;;;4987889;28;20361;-42
2023/07/29 10:55:19;;;;;;;;;;;;;;;;;;4987581;28;20460;-42
2023/07/29 10:57:45;;;;;;;;;;;;;;;;;;4987963;28;20012;-42
2023/07/29 11:00:11;;;;;;;;;;;;;;;;;;4986818;28;19914;-41
2023/07/29 11:02:37;;;;;;;;;;;;;;;;;;4988804;28;19910;-41
2023/07/29 11:05:03;;;;;;;;;;;;;;;;;;4986604;28;20373;-41
2023/07/29 11:07:29;;;;;;;;;;;;;;;;;;4986807;28;19913;-40
2023/07/29 11:09:56;;;;;;;;;;;;;;;;;;4985118;28;19914;-40
2023/07/29 11:12:22;;;;;;;;;;;;;;;;;;4982819;28;20300;-40
2023/07/29 11:14:48;;;;;;;;;;;;;;;;;;4987323;28;19913;-40
2023/07/29 11:17:14;;;;;;;;;;;;;;;;;;4988053;28;19965;-40
2023/07/29 11:19:40;;;;;;;;;;;;;;;;;;4987900;28;19917;-40
2023/07/29 11:22:05;;;;;;;;;;;;;;;;;;4987121;28;19918;-40
2023/07/29 11:24:31;;;;;;;;;;;;;;;;;;4968368;28;19914;-40
2023/07/29 11:26:57;;;;;;;;;;;;;;;;;;4967883;28;20020;-40
2023/07/29 11:29:24;;;;;;;;;;;;;;;;;;4977946;28;20368;-40
2023/07/29 11:31:50;;;;;;;;;;;;;;;;;;4987162;28;19910;-39
2023/07/29 11:34:20;;;;;;;;;;;;;;;;;;4987099;28;19922;-40
2023/07/29 11:36:46;;;;;;;;;;;;;;;;;;4987623;28;19913;-40
2023/07/29 11:39:11;;;;;;;;;;;;;;;;;;4987463;28;20008;-40
2023/07/29 11:41:37;;;;;;;;;;;;;;;;;;4987538;28;20364;-40
2023/07/29 11:44:03;;;;;;;;;;;;;;;;;;4986405;28;19914;-40
2023/07/29 11:46:29;;;;;;;;;;;;;;;;;;4987783;28;20369;-39
2023/07/29 11:48:55;;;;;;;;;;;;;;;;;;4987139;28;20223;-40
2023/07/29 11:51:21;;;;;;;;;;;;;;;;;;4985645;28;19961;-40
2023/07/29 11:53:47;;;;;;;;;;;;;;;;;;4986999;28;19914;-40
2023/07/29 11:56:13;;;;;;;;;;;;;;;;;;4986540;28;20009;-40
2023/07/29 11:58:39;;;;;;;;;;;;;;;;;;4985399;28;20269;-40
2023/07/29 12:01:04;;;;;;;;;;;;;;;;;;4984106;28;19921;-40
2023/07/29 12:03:30;;;;;;;;;;;;;;;;;;4983965;28;19921;-40
2023/07/29 12:05:56;;;;;;;;;;;;;;;;;;4985990;28;19914;-40
2023/07/29 12:08:23;;;;;;;;;;;;;;;;;;4981007;28;19913;-40
2023/07/29 12:10:48;;;;;;;;;;;;;;;;;;4987914;28;19914;-41
2023/07/29 12:13:14;;;;;;;;;;;;;;;;;;4986840;28;19917;-40
2023/07/29 12:15:40;;;;;;;;;;;;;;;;;;4986035;28;19918;-40
2023/07/29 12:18:06;;;;;;;;;;;;;;;;;;4985963;28;19917;-40
2023/07/29 12:20:32;;;;;;;;;;;;;;;;;;4984444;28;20400;-40
2023/07/29 12:22:58;;;;;;;;;;;;;;;;;;4985282;28;20292;-40
2023/07/29 12:25:24;;;;;;;;;;;;;;;;;;4984749;28;19929;-40
2023/07/29 12:27:50;;;;;;;;;;;;;;;;;;4986790;28;20292;-40
2023/07/29 12:30:17;;;;;;;;;;;;;;;;;;4987527;28;19918;-40
2023/07/29 12:32:43;;;;;;;;;;;;;;;;;;4985264;28;19921;-40
2023/07/29 12:35:09;;;;;;;;;;;;;;;;;;4986446;28;19914;-40
2023/07/29 12:37:34;;;;;;;;;;;;;;;;;;4984054;28;19925;-40
2023/07/29 12:40:01;;;;;;;;;;;;;;;;;;4985515;28;20206;-40
2023/07/29 12:42:26;;;;;;;;;;;;;;;;;;4983421;28;19922;-40
2023/07/29 12:44:52;;;;;;;;;;;;;;;;;;4984999;28;19922;-40
2023/07/29 12:47:18;;;;;;;;;;;;;;;;;;4981916;28;20407;-40
2023/07/29 12:49:44;;;;;;;;;;;;;;;;;;4984945;28;19996;-40
2023/07/29 12:52:10;;;;;;;;;;;;;;;;;;4986250;28;19996;-40
2023/07/29 12:54:36;;;;;;;;;;;;;;;;;;4982580;28;20017;-40
2023/07/29 12:57:02;;;;;;;;;;;;;;;;;;4985712;28;20285;-40
2023/07/29 12:59:28;;;;;;;;;;;;;;;;;;4984661;28;19965;-41
2023/07/29 13:01:53;;;;;;;;;;;;;;;;;;4985376;28;19918;-41
2023/07/29 13:04:19;;;;;;;;;;;;;;;;;;4987859;28;19914;-41
2023/07/29 13:06:45;;;;;;;;;;;;;;;;;;4983826;28;19988;-40
2023/07/29 13:09:11;;;;;;;;;;;;;;;;;;4983976;28;20222;-40
2023/07/29 13:11:37;;;;;;;;;;;;;;;;;;4984356;28;20398;-40
2023/07/29 13:14:03;;;;;;;;;;;;;;;;;;4982439;28;20004;-41
2023/07/29 13:16:29;;;;;;;;;;;;;;;;;;4983761;28;19913;-41
2023/07/29 13:18:55;;;;;;;;;;;;;;;;;;4982416;28;19922;-41
2023/07/29 13:21:21;;;;;;;;;;;;;;;;;;4984384;28;19957;-40
2023/07/29 13:23:47;;;;;;;;;;;;;;;;;;4985588;28;20328;-40
2023/07/29 13:26:13;;;;;;;;;;;;;;;;;;4982849;28;19928;-40
2023/07/29 13:28:39;;;;;;;;;;;;;;;;;;4986422;28;19918;-41
2023/07/29 13:31:05;;;;;;;;;;;;;;;;;;4979235;28;19921;-41
2023/07/29 13:33:33;;;;;;;;;;;;;;;;;;4981674;28;19922;-41
2023/07/29 13:35:59;;;;;;;;;;;;;;;;;;4983213;28;19913;-40
2023/07/29 13:38:25;;;;;;;;;;;;;;;;;;4985237;28;19922;-40
2023/07/29 13:40:51;;;;;;;;;;;;;;;;;;4983234;28;19914;-40
2023/07/29 13:43:17;;;;;;;;;;;;;;;;;;4981330;28;19921;-41
2023/07/29 13:45:44;;;;;;;;;;;;;;;;;;4984116;28;19924;-40
2023/07/29 13:48:10;;;;;;;;;;;;;;;;;;4986105;28;19914;-41
2023/07/29 13:50:36;;;;;;;;;;;;;;;;;;4985987;28;19914;-41
2023/07/29 13:53:01;;;;;;;;;;;;;;;;;;4986070;28;19997;-41
2023/07/29 13:55:27;;;;;;;;;;;;;;;;;;4985983;28;19914;-41
2023/07/29 13:57:54;;;;;;;;;;;;;;;;;;4987311;28;19926;-41
2023/07/29 14:00:20;;;;;;;;;;;;;;;;;;4982720;28;19922;-41
2023/07/29 14:02:46;;;;;;;;;;;;;;;;;;4988992;28;19937;-41
2023/07/29 14:05:12;;;;;;;;;;;;;;;;;;4989374;28;20379;-40
2023/07/29 14:07:38;;;;;;;;;;;;;;;;;;4984022;28;19949;-41
2023/07/29 14:10:04;;;;;;;;;;;;;;;;;;4984389;28;19949;-41
2023/07/29 14:12:30;;;;;;;;;;;;;;;;;;4982208;28;19960;-40
2023/07/29 14:14:56;;;;;;;;;;;;;;;;;;4982441;28;20545;-40
2023/07/29 14:17:22;;;;;;;;;;;;;;;;;;4982908;28;19924;-41
2023/07/29 14:19:48;;;;;;;;;;;;;;;;;;4983960;28;20380;-41
2023/07/29 14:22:14;;;;;;;;;;;;;;;;;;4986276;28;19914;-41
2023/07/29 14:24:40;;;;;;;;;;;;;;;;;;4984065;28;19918;-40
2023/07/29 14:27:06;;;;;;;;;;;;;;;;;;4986325;28;19922;-41
2023/07/29 14:29:32;;;;;;;;;;;;;;;;;;4984056;28;19917;-41
2023/07/29 14:31:57;;;;;;;;;;;;;;;;;;4982804;28;20017;-40
2023/07/29 14:34:23;;;;;;;;;;;;;;;;;;4987440;28;20577;-41
2023/07/29 14:36:49;;;;;;;;;;;;;;;;;;4984068;28;19957;-41
2023/07/29 14:39:15;;;;;;;;;;;;;;;;;;4987964;28;20344;-40
2023/07/29 14:41:41;;;;;;;;;;;;;;;;;;4984400;28;19921;-40
2023/07/29 14:44:07;;;;;;;;;;;;;;;;;;4984520;28;20361;-41
2023/07/29 14:46:33;;;;;;;;;;;;;;;;;;4985018;28;19941;-41
2023/07/29 14:48:59;;;;;;;;;;;;;;;;;;4986502;28;19921;-41
2023/07/29 14:51:24;;;;;;;;;;;;;;;;;;4983002;28;20316;-41
2023/07/29 14:53:50;;;;;;;;;;;;;;;;;;4974130;28;19921;-41
2023/07/29 14:56:17;;;;;;;;;;;;;;;;;;4985861;28;19921;-41
2023/07/29 14:58:43;;;;;;;;;;;;;;;;;;4988656;28;19918;-41
2023/07/29 15:01:09;;;;;;;;;;;;;;;;;;4988359;28;19917;-41
2023/07/29 15:03:35;;;;;;;;;;;;;;;;;;4988468;28;19964;-41
2023/07/29 15:06:02;;;;;;;;;;;;;;;;;;4985310;28;19948;-41
2023/07/29 15:08:28;;;;;;;;;;;;;;;;;;4988317;28;20003;-41
2023/07/29 15:10:54;;;;;;;;;;;;;;;;;;4985196;28;19945;-41
2023/07/29 15:13:20;;;;;;;;;;;;;;;;;;4983082;28;19914;-40
2023/07/29 15:15:48;;;;;;;;;;;;;;;;;;4982421;28;20015;-41
2023/07/29 15:18:14;;;;;;;;;;;;;;;;;;4982147;28;19925;-41
2023/07/29 15:20:39;;;;;;;;;;;;;;;;;;4983843;28;19945;-41
2023/07/29 15:23:05;;;;;;;;;;;;;;;;;;4982479;28;20348;-41
2023/07/29 15:25:31;;;;;;;;;;;;;;;;;;4983410;28;19964;-41
2023/07/29 15:27:58;;;;;;;;;;;;;;;;;;4982860;28;19952;-42
2023/07/29 15:30:23;;;;;;;;;;;;;;;;;;4983833;28;20004;-42
2023/07/29 15:32:49;;;;;;;;;;;;;;;;;;4986949;28;19997;-42
2023/07/29 15:35:15;;;;;;;;;;;;;;;;;;4984961;28;20292;-42
2023/07/29 15:37:41;;;;;;;;;;;;;;;;;;4984644;28;20554;-42
2023/07/29 15:40:07;;;;;;;;;;;;;;;;;;4988916;28;20005;-41
2023/07/29 15:42:33;;;;;;;;;;;;;;;;;;4986925;28;19929;-42
2023/07/29 15:44:59;;;;;;;;;;;;;;;;;;4991298;28;19909;-41
2023/07/29 15:47:25;;;;;;;;;;;;;;;;;;4991043;28;19980;-41
2023/07/29 15:49:51;;;;;;;;;;;;;;;;;;4988554;28;20405;-42
2023/07/29 15:52:17;;;;;;;;;;;;;;;;;;4990681;28;19917;-42
2023/07/29 15:54:42;;;;;;;;;;;;;;;;;;4988504;28;20442;-43
2023/07/29 15:57:08;;;;;;;;;;;;;;;;;;4989986;28;19926;-43
2023/07/29 15:59:34;;;;;;;;;;;;;;;;;;4989622;28;19960;-43
2023/07/29 16:02:00;;;;;;;;;;;;;;;;;;4988797;28;20377;-42
2023/07/29 16:04:26;;;;;;;;;;;;;;;;;;4990542;28;20660;-42
2023/07/29 16:06:52;;;;;;;;;;;;;;;;;;4991430;28;19914;-43
2023/07/29 16:09:21;;;;;;;;;;;;;;;;;;4991582;28;20388;-43
2023/07/29 16:11:46;;;;;;;;;;;;;;;;;;4991437;28;19914;-42
2023/07/29 16:14:12;;;;;;;;;;;;;;;;;;4991384;28;20585;-42
2023/07/29 16:16:38;;;;;;;;;;;;;;;;;;4990692;28;19920;-42
2023/07/29 16:19:06;;;;;;;;;;;;;;;;;;4991047;28;19917;-45
2023/07/29 16:21:31;;;;;;;;;;;;;;;;;;4989100;28;20343;-42
2023/07/29 16:23:57;;;;;;;;;;;;;;;;;;4990179;28;19910;-43
2023/07/29 16:26:23;;;;;;;;;;;;;;;;;;4990481;28;19914;-42
2023/07/29 16:28:49;;;;;;;;;;;;;;;;;;4991772;28;20676;-41
2023/07/29 16:31:15;;;;;;;;;;;;;;;;;;4985606;28;19922;-43
2023/07/29 16:33:41;;;;;;;;;;;;;;;;;;4989943;28;19921;-42
2023/07/29 16:36:07;;;;;;;;;;;;;;;;;;4987778;28;20438;-42
2023/07/29 16:38:33;;;;;;;;;;;;;;;;;;4989978;28;20369;-42
2023/07/29 16:40:59;;;;;;;;;;;;;;;;;;4990692;28;19909;-43
2023/07/29 16:43:25;;;;;;;;;;;;;;;;;;4987196;28;20392;-42
2023/07/29 16:45:51;;;;;;;;;;;;;;;;;;4985434;28;19944;-42
2023/07/29 16:48:16;;;;;;;;;;;;;;;;;;4988370;28;19921;-42
2023/07/29 16:50:42;;;;;;;;;;;;;;;;;;4991308;28;19953;-42
2023/07/29 16:53:08;;;;;;;;;;;;;;;;;;4988209;28;20415;-42
2023/07/29 16:55:34;;;;;;;;;;;;;;;;;;4985572;28;19914;-42
2023/07/29 16:58:00;;;;;;;;;;;;;;;;;;4987615;28;19945;-43
2023/07/29 17:00:26;;;;;;;;;;;;;;;;;;4987799;28;19913;-42
2023/07/29 17:02:52;;;;;;;;;;;;;;;;;;4989021;28;20270;-43
2023/07/29 17:05:18;;;;;;;;;;;;;;;;;;4986674;28;19920;-42
2023/07/29 17:07:44;;;;;;;;;;;;;;;;;;4986915;28;20381;-42
2023/07/29 17:10:09;;;;;;;;;;;;;;;;;;4988004;28;19909;-41
2023/07/29 17:12:35;;;;;;;;;;;;;;;;;;4986097;28;20049;-42
2023/07/29 17:15:02;;;;;;;;;;;;;;;;;;4983649;28;19914;-41
2023/07/29 17:17:27;;;;;;;;;;;;;;;;;;4987902;28;19945;-41
2023/07/29 17:19:53;;;;;;;;;;;;;;;;;;4986972;28;19922;-41
2023/07/29 17:22:19;;;;;;;;;;;;;;;;;;4985964;28;19914;-41
2023/07/29 17:24:45;;;;;;;;;;;;;;;;;;4986104;28;20049;-41
2023/07/29 17:27:11;;;;;;;;;;;;;;;;;;4986696;28;20365;-41
2023/07/29 17:29:37;;;;;;;;;;;;;;;;;;4987269;28;19937;-41
2023/07/29 17:32:03;;;;;;;;;;;;;;;;;;4983772;28;20385;-41
2023/07/29 17:34:29;;;;;;;;;;;;;;;;;;4986675;28;19920;-41
2023/07/29 17:36:55;;;;;;;;;;;;;;;;;;4985976;28;19950;-41
2023/07/29 17:39:21;;;;;;;;;;;;;;;;;;4986951;28;20008;-41
2023/07/29 17:41:46;;;;;;;;;;;;;;;;;;4985145;28;19944;-41
2023/07/29 17:44:12;;;;;;;;;;;;;;;;;;4986461;28;19961;-41
2023/07/29 17:46:41;;;;;;;;;;;;;;;;;;4986246;28;20007;-41
2023/07/29 17:49:07;;;;;;;;;;;;;;;;;;4985742;28;20280;-41
2023/07/29 17:51:32;;;;;;;;;;;;;;;;;;4988174;28;19913;-41
2023/07/29 17:53:58;;;;;;;;;;;;;;;;;;4983075;28;19914;-41
2023/07/29 17:56:26;;;;;;;;;;;;;;;;;;4988053;28;19909;-41
2023/07/29 17:58:52;;;;;;;;;;;;;;;;;;4984164;28;19922;-41
2023/07/29 18:01:17;;;;;;;;;;;;;;;;;;4980852;28;19914;-41
2023/07/29 18:03:43;;;;;;;;;;;;;;;;;;4980099;28;20380;-41
2023/07/29 18:06:09;;;;;;;;;;;;;;;;;;4982131;28;19937;-41
2023/07/29 18:08:35;;;;;;;;;;;;;;;;;;4984047;28;20027;-41
2023/07/29 18:11:01;;;;;;;;;;;;;;;;;;4981531;28;19921;-41
2023/07/29 18:13:27;;;;;;;;;;;;;;;;;;4983580;28;20415;-41
2023/07/29 18:15:53;;;;;;;;;;;;;;;;;;4981959;28;19925;-41
2023/07/29 18:18:19;;;;;;;;;;;;;;;;;;4981576;28;20407;-40
2023/07/29 18:20:47;;;;;;;;;;;;;;;;;;4983307;28;19918;-41
2023/07/29 18:23:15;;;;;;;;;;;;;;;;;;4981753;28;19976;-41
2023/07/29 18:25:40;;;;;;;;;;;;;;;;;;4981874;28;19914;-41
2023/07/29 18:28:08;;;;;;;;;;;;;;;;;;4981458;28;20459;-41
2023/07/29 18:30:34;;;;;;;;;;;;;;;;;;4981239;28;20029;-41
2023/07/29 18:33:03;;;;;;;;;;;;;;;;;;4984614;28;19921;-41
2023/07/29 18:35:28;;;;;;;;;;;;;;;;;;4981506;28;19924;-41
2023/07/29 18:37:57;;;;;;;;;;;;;;;;;;4985219;28;19917;-40
2023/07/29 18:40:23;;;;;;;;;;;;;;;;;;4986541;28;19913;-41
2023/07/29 18:42:49;;;;;;;;;;;;;;;;;;4985003;28;19914;-41
2023/07/29 18:45:15;;;;;;;;;;;;;;;;;;4986061;28;19921;-41
2023/07/29 18:47:41;;;;;;;;;;;;;;;;;;4985947;28;20353;-41
2023/07/29 18:50:07;;;;;;;;;;;;;;;;;;4986648;28;19909;-41
2023/07/29 18:52:33;;;;;;;;;;;;;;;;;;4987079;28;20376;-41
2023/07/29 18:54:59;;;;;;;;;;;;;;;;;;4985597;28;19945;-41
2023/07/29 18:57:25;;;;;;;;;;;;;;;;;;4983913;28;19941;-41
2023/07/29 18:59:51;;;;;;;;;;;;;;;;;;4986708;28;19932;-40
2023/07/29 19:02:17;;;;;;;;;;;;;;;;;;4984217;28;20230;-41
2023/07/29 19:04:46;;;;;;;;;;;;;;;;;;4985133;28;20088;-41
2023/07/29 19:07:13;;;;;;;;;;;;;;;;;;4984525;28;19917;-41
2023/07/29 19:09:39;;;;;;;;;;;;;;;;;;4985230;28;19969;-41
2023/07/29 19:12:05;;;;;;;;;;;;;;;;;;4985852;28;19980;-41
2023/07/29 19:14:31;;;;;;;;;;;;;;;;;;4987942;28;19997;-41
2023/07/29 19:16:57;;;;;;;;;;;;;;;;;;4983064;28;20428;-41
2023/07/29 19:19:22;;;;;;;;;;;;;;;;;;4985239;28;20013;-41
2023/07/29 19:21:49;;;;;;;;;;;;;;;;;;4986367;28;19910;-41
2023/07/29 19:24:15;;;;;;;;;;;;;;;;;;5001074;28;20344;-41
2023/07/29 19:26:41;;;;;;;;;;;;;;;;;;4985978;28;19940;-41
2023/07/29 19:29:08;;;;;;;;;;;;;;;;;;4985482;28;19944;-41
2023/07/29 19:31:34;;;;;;;;;;;;;;;;;;4985942;28;20476;-41
2023/07/29 19:33:59;;;;;;;;;;;;;;;;;;4986432;28;20046;-41
2023/07/29 19:36:27;;;;;;;;;;;;;;;;;;4986552;28;19914;-41
2023/07/29 19:38:53;;;;;;;;;;;;;;;;;;4984317;28;19918;-41
2023/07/29 19:41:19;;;;;;;;;;;;;;;;;;4984210;28;20004;-41
2023/07/29 19:43:47;;;;;;;;;;;;;;;;;;4985601;28;20101;-41
2023/07/29 19:46:13;;;;;;;;;;;;;;;;;;4984545;28;19910;-41
2023/07/29 19:48:38;;;;;;;;;;;;;;;;;;4985730;28;20455;-41
2023/07/29 19:51:04;;;;;;;;;;;;;;;;;;4986568;28;19961;-41
2023/07/29 19:53:30;;;;;;;;;;;;;;;;;;4986111;28;19913;-40
2023/07/29 19:55:57;;;;;;;;;;;;;;;;;;4986140;28;19917;-41
2023/07/29 19:58:22;;;;;;;;;;;;;;;;;;4985059;28;19957;-41
2023/07/29 20:00:48;;;;;;;;;;;;;;;;;;4975002;28;19948;-41
2023/07/29 20:03:14;;;;;;;;;;;;;;;;;;4984252;28;19924;-41
2023/07/29 20:05:41;;;;;;;;;;;;;;;;;;4983743;28;19968;-41
2023/07/29 20:08:07;;;;;;;;;;;;;;;;;;4991035;28;20356;-41
2023/07/29 20:10:33;;;;;;;;;;;;;;;;;;4987314;28;19910;-41
2023/07/29 20:12:59;;;;;;;;;;;;;;;;;;4984059;28;20333;-41
2023/07/29 20:15:25;;;;;;;;;;;;;;;;;;4976999;28;19918;-41
2023/07/29 20:17:51;;;;;;;;;;;;;;;;;;4965012;28;19961;-41
2023/07/29 20:20:17;;;;;;;;;;;;;;;;;;4982516;28;20080;-41
2023/07/29 20:22:42;;;;;;;;;;;;;;;;;;4984881;28;20009;-41
2023/07/29 20:25:08;;;;;;;;;;;;;;;;;;4983006;28;19914;-40
2023/07/29 20:27:34;;;;;;;;;;;;;;;;;;4988612;28;20296;-40
2023/07/29 20:30:00;;;;;;;;;;;;;;;;;;4989699;28;19960;-40
2023/07/29 20:32:26;;;;;;;;;;;;;;;;;;4989927;28;19921;-40
2023/07/29 20:34:52;;;;;;;;;;;;;;;;;;4987976;28;20076;-40
2023/07/29 20:37:18;;;;;;;;;;;;;;;;;;4989585;28;20043;-40
2023/07/29 20:39:44;;;;;;;;;;;;;;;;;;4987410;28;19976;-40
2023/07/29 20:42:10;;;;;;;;;;;;;;;;;;4988999;28;19909;-40
2023/07/29 20:44:38;;;;;;;;;;;;;;;;;;4985662;28;19917;-41
2023/07/29 20:47:04;;;;;;;;;;;;;;;;;;4989656;28;19909;-41
2023/07/29 20:49:30;;;;;;;;;;;;;;;;;;4988395;28;20004;-41
2023/07/29 20:51:56;;;;;;;;;;;;;;;;;;4975544;28;20282;-41
2023/07/29 20:54:22;;;;;;;;;;;;;;;;;;4986991;28;19920;-40
2023/07/29 20:56:48;;;;;;;;;;;;;;;;;;4988261;28;19920;-40
2023/07/29 20:59:14;;;;;;;;;;;;;;;;;;4987540;28;20240;-40
2023/07/29 21:01:40;;;;;;;;;;;;;;;;;;4987964;28;19921;-41
2023/07/29 21:04:06;;;;;;;;;;;;;;;;;;4989134;28;19921;-40
2023/07/29 21:06:31;;;;;;;;;;;;;;;;;;4987590;28;19921;-40
2023/07/29 21:08:57;;;;;;;;;;;;;;;;;;4988726;28;19932;-40
2023/07/29 21:11:23;;;;;;;;;;;;;;;;;;4989199;28;19940;-40
2023/07/29 21:13:51;;;;;;;;;;;;;;;;;;4989086;28;20194;-40
2023/07/29 21:16:20;;;;;;;;;;;;;;;;;;4987044;28;20037;-41
2023/07/29 21:18:45;;;;;;;;;;;;;;;;;;4985480;28;19928;-41
2023/07/29 21:21:11;;;;;;;;;;;;;;;;;;4984041;28;20327;-41
2023/07/29 21:23:37;;;;;;;;;;;;;;;;;;4985268;28;20009;-41
2023/07/29 21:26:03;;;;;;;;;;;;;;;;;;4987460;28;20384;-41
2023/07/29 21:28:29;;;;;;;;;;;;;;;;;;4984411;28;19914;-40
2023/07/29 21:30:55;;;;;;;;;;;;;;;;;;4986535;28;19960;-40
2023/07/29 21:33:21;;;;;;;;;;;;;;;;;;4985773;28;20165;-40
2023/07/29 21:35:47;;;;;;;;;;;;;;;;;;4986727;28;20160;-40
2023/07/29 21:38:12;;;;;;;;;;;;;;;;;;4984967;28;19922;-41
2023/07/29 21:40:38;;;;;;;;;;;;;;;;;;4986822;28;20013;-41
2023/07/29 21:43:04;;;;;;;;;;;;;;;;;;4985798;28;19913;-41
2023/07/29 21:45:30;;;;;;;;;;;;;;;;;;4990555;28;19910;-41
2023/07/29 21:47:56;;;;;;;;;;;;;;;;;;4984324;28;19991;-41
2023/07/29 21:50:22;;;;;;;;;;;;;;;;;;4987705;28;19910;-41
2023/07/29 21:52:48;;;;;;;;;;;;;;;;;;4986945;28;20348;-41
2023/07/29 21:55:14;;;;;;;;;;;;;;;;;;4988116;28;19941;-41